createdAt,value
2019-05-09T00:00:19.487Z,15.77
2019-05-09T00:02:54.041Z,6.13
2019-05-09T00:05:27.032Z,3.80
2019-05-09T00:08:00.698Z,5.73
2019-05-09T00:10:39.484Z,4.33
2019-05-09T00:13:07.691Z,5.60
2019-05-09T00:15:43.678Z,4.33
2019-05-09T00:18:16.043Z,5.37
2019-05-09T00:20:54.009Z,7.43
2019-05-09T00:23:27.383Z,7.03
2019-05-09T00:26:04.127Z,4.73
2019-05-09T00:28:38.001Z,4.77
2019-05-09T00:31:20.626Z,4.90
2019-05-09T00:33:57.024Z,4.10
2019-05-09T00:36:29.771Z,4.57
2019-05-09T00:39:04.106Z,4.63
2019-05-09T00:41:36.513Z,4.40
2019-05-09T00:44:19.921Z,7.03
2019-05-09T00:47:04.228Z,7.60
2019-05-09T00:49:36.652Z,4.63
2019-05-09T00:52:09.953Z,5.47
2019-05-09T00:54:43.839Z,3.93
2019-05-09T00:57:39.514Z,3.37
2019-05-09T01:00:14.780Z,4.70
2019-05-09T01:02:47.045Z,6.03
2019-05-09T01:05:18.804Z,3.37
2019-05-09T01:07:50.722Z,3.47
2019-05-09T01:10:23.682Z,2.77
2019-05-09T01:12:56.061Z,7.00
2019-05-09T01:18:38.546Z,5.17
2019-05-09T01:21:13.377Z,3.37
2019-05-09T01:23:46.574Z,5.87
2019-05-09T01:26:21.194Z,7.60
2019-05-09T01:28:53.985Z,6.07
2019-05-09T01:31:26.390Z,3.30
2019-05-09T01:34:07.900Z,6.30
2019-05-09T01:37:14.467Z,4.80
2019-05-09T01:39:46.963Z,5.20
2019-05-09T01:42:20.461Z,4.87
2019-05-09T01:44:53.324Z,6.00
2019-05-09T01:47:25.501Z,6.87
2019-05-09T01:49:58.363Z,4.70
2019-05-09T01:52:33.816Z,3.63
2019-05-09T01:55:07.522Z,5.10
2019-05-09T01:57:40.311Z,4.30
2019-05-09T02:00:13.284Z,7.37
2019-05-09T02:02:45.248Z,5.13
2019-05-09T02:05:17.872Z,3.37
2019-05-09T02:07:51.513Z,3.73
2019-05-09T02:10:25.895Z,3.67
2019-05-09T02:12:59.643Z,4.60
2019-05-09T02:15:58.065Z,4.87
2019-05-09T02:18:40.238Z,5.87
2019-05-09T02:21:14.671Z,3.90
2019-05-09T02:23:48.095Z,4.67
2019-05-09T02:26:20.187Z,3.03
2019-05-09T02:28:53.902Z,5.07
2019-05-09T02:34:37.582Z,4.37
2019-05-09T02:37:10.153Z,3.77
2019-05-09T02:39:43.231Z,2.63
2019-05-09T02:42:20.060Z,6.23
2019-05-09T02:44:54.081Z,4.83
2019-05-09T02:47:30.443Z,3.73
2019-05-09T02:50:02.708Z,4.27
2019-05-09T02:52:35.713Z,3.17
2019-05-09T02:55:09.870Z,3.53
2019-05-09T02:57:48.920Z,3.63
2019-05-09T03:00:55.240Z,4.37
2019-05-09T03:03:29.329Z,5.77
2019-05-09T03:06:03.875Z,3.33
2019-05-09T03:08:49.076Z,4.07
2019-05-09T03:11:21.074Z,3.20
2019-05-09T03:13:54.477Z,2.63
2019-05-09T03:16:29.309Z,4.50
2019-05-09T03:19:02.020Z,5.03
2019-05-09T03:21:39.329Z,2.60
2019-05-09T03:24:11.977Z,3.43
2019-05-09T03:26:49.351Z,3.63
2019-05-09T03:29:40.713Z,4.73
2019-05-09T03:32:13.434Z,4.47
2019-05-09T03:38:08.805Z,7.63
2019-05-09T03:40:42.423Z,4.67
2019-05-09T03:43:22.479Z,2.93
2019-05-09T03:46:04.718Z,3.60
2019-05-09T03:48:42.444Z,5.03
2019-05-09T03:51:18.465Z,4.63
2019-05-09T03:53:57.641Z,5.20
2019-05-09T03:56:40.269Z,3.67
2019-05-09T03:59:13.447Z,7.50
2019-05-09T04:01:50.190Z,5.03
2019-05-09T04:04:23.099Z,4.90
2019-05-09T04:06:58.995Z,7.90
2019-05-09T04:09:35.171Z,4.00
2019-05-09T04:12:13.361Z,4.60
2019-05-09T04:14:47.974Z,14.53
2019-05-09T04:17:20.031Z,3.07
2019-05-09T04:20:01.200Z,5.47
2019-05-09T04:22:39.207Z,7.63
2019-05-09T04:25:18.163Z,3.70
2019-05-09T04:27:54.761Z,6.27
2019-05-09T04:30:27.448Z,5.23
2019-05-09T04:33:13.552Z,6.77
2019-05-09T04:35:51.231Z,4.70
2019-05-09T04:38:24.844Z,4.50
2019-05-09T04:40:59.504Z,4.23
2019-05-09T04:43:36.660Z,7.53
2019-05-09T04:46:30.765Z,4.47
2019-05-09T04:49:08.245Z,4.07
2019-05-09T04:51:41.455Z,3.17
2019-05-09T04:54:14.675Z,4.20
2019-05-09T04:56:53.911Z,4.90
2019-05-09T04:59:30.804Z,4.17
2019-05-09T05:02:21.225Z,3.87
2019-05-09T05:04:54.369Z,5.30
2019-05-09T05:07:28.543Z,4.60
2019-05-09T05:10:08.782Z,2.87
2019-05-09T05:12:41.139Z,4.33
2019-05-09T05:15:17.966Z,6.40
2019-05-09T05:17:53.736Z,5.90
2019-05-09T05:20:27.784Z,6.57
2019-05-09T05:23:12.112Z,4.13
2019-05-09T05:25:47.021Z,6.17
2019-05-09T05:28:19.744Z,6.83
2019-05-09T05:30:52.933Z,4.37
2019-05-09T05:33:53.943Z,5.53
2019-05-09T05:36:33.442Z,5.87
2019-05-09T05:39:09.375Z,6.87
2019-05-09T05:41:48.265Z,6.60
2019-05-09T05:44:19.565Z,4.67
2019-05-09T05:47:14.276Z,4.73
2019-05-09T05:49:48.792Z,5.57
2019-05-09T05:52:21.104Z,5.60
2019-05-09T05:54:54.411Z,4.70
2019-05-09T05:57:28.000Z,9.07
2019-05-09T06:00:01.157Z,3.97
2019-05-09T06:02:38.329Z,6.67
2019-05-09T06:05:10.428Z,4.23
2019-05-09T06:07:44.103Z,4.00
2019-05-09T06:10:20.814Z,7.00
2019-05-09T06:12:53.469Z,8.70
2019-05-09T06:15:25.648Z,5.57
2019-05-09T06:17:58.753Z,5.37
2019-05-09T06:20:32.257Z,5.33
2019-05-09T06:23:04.635Z,6.10
2019-05-09T06:25:39.001Z,6.50
2019-05-09T06:28:12.905Z,6.60
2019-05-09T06:30:47.689Z,10.57
2019-05-09T06:33:19.018Z,5.53
2019-05-09T06:35:58.857Z,6.57
2019-05-09T06:41:49.683Z,3.37
2019-05-09T06:45:04.897Z,7.53
2019-05-09T06:47:48.497Z,4.40
2019-05-09T06:50:27.113Z,6.37
2019-05-09T06:53:00.125Z,5.40
2019-05-09T06:55:52.316Z,9.67
2019-05-09T06:58:43.060Z,7.57
2019-05-09T07:01:33.674Z,6.50
2019-05-09T07:04:15.592Z,4.07
2019-05-09T07:06:59.795Z,6.70
2019-05-09T07:09:42.814Z,4.23
2019-05-09T07:12:19.190Z,5.70
2019-05-09T07:14:51.998Z,6.07
2019-05-09T07:17:24.259Z,7.00
2019-05-09T07:20:14.642Z,8.30
2019-05-09T07:23:00.494Z,5.20
2019-05-09T07:25:52.774Z,5.90
2019-05-09T07:28:28.258Z,6.30
2019-05-09T07:31:12.252Z,6.10
2019-05-09T07:33:58.884Z,7.37
2019-05-09T07:36:31.338Z,4.93
2019-05-09T07:39:13.918Z,6.23
2019-05-09T07:41:47.932Z,5.77
2019-05-09T07:44:21.540Z,4.33
2019-05-09T07:47:00.186Z,7.07
2019-05-09T07:49:34.235Z,5.40
2019-05-09T07:52:09.414Z,3.23
2019-05-09T07:54:44.674Z,5.83
2019-05-09T07:57:18.589Z,5.37
2019-05-09T07:59:50.517Z,4.63
2019-05-09T08:02:23.010Z,5.70
2019-05-09T08:04:57.916Z,6.67
2019-05-09T08:10:43.042Z,6.10
2019-05-09T08:13:21.041Z,6.40
2019-05-09T08:15:51.588Z,10.67
2019-05-09T08:18:23.796Z,5.23
2019-05-09T08:20:57.812Z,6.20
2019-05-09T08:23:31.513Z,4.90
2019-05-09T08:26:04.729Z,6.23
2019-05-09T08:28:38.973Z,4.73
2019-05-09T08:31:13.397Z,4.87
2019-05-09T08:33:48.529Z,8.37
2019-05-09T08:36:20.438Z,7.10
2019-05-09T08:39:03.661Z,5.27
2019-05-09T08:41:52.152Z,7.47
2019-05-09T08:44:25.693Z,6.00
2019-05-09T08:46:59.125Z,5.13
2019-05-09T08:49:54.782Z,5.67
2019-05-09T08:52:28.790Z,5.03
2019-05-09T08:55:04.415Z,6.53
2019-05-09T08:57:37.596Z,7.03
2019-05-09T09:00:12.520Z,6.30
2019-05-09T09:02:44.467Z,7.47
2019-05-09T09:08:29.198Z,6.80
2019-05-09T09:11:01.967Z,5.77
2019-05-09T09:13:37.756Z,7.43
2019-05-09T09:16:18.713Z,6.27
2019-05-09T09:18:48.069Z,6.20
2019-05-09T09:21:20.987Z,7.73
2019-05-09T09:23:53.601Z,4.70
2019-05-09T09:26:28.120Z,5.73
2019-05-09T09:29:01.241Z,6.80
2019-05-09T09:31:33.088Z,4.63
2019-05-09T09:34:13.946Z,4.10
2019-05-09T09:36:48.068Z,4.47
2019-05-09T09:39:21.622Z,8.97
2019-05-09T09:41:53.888Z,5.00
2019-05-09T09:44:28.505Z,4.03
2019-05-09T09:47:00.929Z,7.17
2019-05-09T09:49:33.724Z,5.23
2019-05-09T09:52:15.602Z,12.07
2019-05-09T09:55:21.280Z,7.23
2019-05-09T09:57:54.867Z,8.37
2019-05-09T10:00:51.456Z,8.87
2019-05-09T10:03:25.594Z,6.73
2019-05-09T10:05:59.962Z,7.60
2019-05-09T10:08:32.235Z,7.17
2019-05-09T10:11:12.439Z,8.30
2019-05-09T10:13:58.306Z,7.23
2019-05-09T10:16:49.607Z,7.13
2019-05-09T10:19:27.907Z,4.83
2019-05-09T10:22:01.468Z,6.43
2019-05-09T10:24:35.103Z,7.07
2019-05-09T10:27:28.310Z,5.63
2019-05-09T10:30:04.103Z,6.97
2019-05-09T10:32:38.308Z,6.67
2019-05-09T10:35:27.979Z,7.10
2019-05-09T10:41:40.503Z,8.07
2019-05-09T10:44:30.636Z,7.30
2019-05-09T10:47:28.821Z,6.10
2019-05-09T10:50:11.708Z,6.60
2019-05-09T10:52:43.554Z,5.97
2019-05-09T10:55:17.697Z,5.40
2019-05-09T10:57:53.998Z,7.07
2019-05-09T11:00:28.864Z,8.17
2019-05-09T11:03:02.960Z,7.17
2019-05-09T11:05:39.750Z,8.20
2019-05-09T11:08:18.332Z,8.10
2019-05-09T11:10:50.475Z,5.67
2019-05-09T11:13:28.525Z,7.00
2019-05-09T11:16:01.906Z,6.00
2019-05-09T11:18:36.882Z,6.03
2019-05-09T11:21:11.929Z,7.77
2019-05-09T11:23:44.465Z,6.60
2019-05-09T11:26:17.877Z,5.60
2019-05-09T11:28:51.019Z,7.27
2019-05-09T11:31:23.707Z,8.57
2019-05-09T11:34:02.685Z,6.83
2019-05-09T11:36:45.101Z,4.47
2019-05-09T11:39:35.201Z,5.67
2019-05-09T11:41:51.797Z,8.30
2019-05-09T11:44:24.411Z,5.20
2019-05-09T11:46:58.294Z,5.27
2019-05-09T11:49:33.242Z,8.67
2019-05-09T11:52:08.619Z,6.90
2019-05-09T11:54:48.224Z,12.43
2019-05-09T11:57:27.375Z,7.53
2019-05-09T11:59:57.975Z,6.47
2019-05-09T12:05:43.226Z,12.93
2019-05-09T12:08:17.741Z,7.07
2019-05-09T12:11:00.194Z,7.83
2019-05-09T12:13:34.788Z,7.43
2019-05-09T12:16:07.285Z,5.80
2019-05-09T12:18:48.920Z,6.50
2019-05-09T12:21:24.031Z,9.67
2019-05-09T12:23:58.107Z,6.83
2019-05-09T12:26:30.969Z,4.20
2019-05-09T12:32:14.291Z,8.63
2019-05-09T12:34:57.726Z,6.47
2019-05-09T12:37:37.875Z,5.70
2019-05-09T12:40:11.749Z,8.23
2019-05-09T12:45:59.277Z,9.37
2019-05-09T12:48:32.507Z,6.00
2019-05-09T12:51:08.657Z,8.07
2019-05-09T12:57:11.515Z,9.40
2019-05-09T12:59:53.173Z,8.10
2019-05-09T13:02:27.926Z,9.27
2019-05-09T13:05:01.286Z,7.23
2019-05-09T13:08:10.487Z,5.67
2019-05-09T13:10:48.722Z,8.10
2019-05-09T13:13:22.261Z,5.83
2019-05-09T13:16:14.280Z,6.53
2019-05-09T13:19:12.608Z,6.60
2019-05-09T13:21:58.917Z,7.03
2019-05-09T13:24:32.704Z,6.67
2019-05-09T13:27:07.914Z,8.93
2019-05-09T13:29:42.299Z,7.80
2019-05-09T13:32:14.967Z,7.93
2019-05-09T13:34:57.827Z,7.27
2019-05-09T13:37:32.950Z,8.60
2019-05-09T13:40:08.404Z,12.50
2019-05-09T13:42:41.432Z,7.10
2019-05-09T13:45:14.740Z,9.23
2019-05-09T13:47:48.499Z,15.80
2019-05-09T13:50:25.177Z,11.70
2019-05-09T13:53:01.809Z,11.13
2019-05-09T13:55:34.813Z,11.17
2019-05-09T13:58:19.973Z,10.43
2019-05-09T14:00:59.240Z,12.73
2019-05-09T14:03:29.956Z,12.10
2019-05-09T14:06:08.944Z,9.70
2019-05-09T14:08:42.562Z,9.10
2019-05-09T14:11:15.187Z,10.17
2019-05-09T14:13:48.743Z,9.00
2019-05-09T14:16:22.573Z,12.00
2019-05-09T14:18:55.716Z,11.97
2019-05-09T14:21:29.945Z,7.97
2019-05-09T14:24:14.131Z,9.43
2019-05-09T14:26:37.146Z,10.00
2019-05-09T14:29:12.798Z,10.37
2019-05-09T14:31:45.039Z,7.40
2019-05-09T14:34:22.936Z,6.00
2019-05-09T14:36:55.062Z,6.10
2019-05-09T14:39:30.060Z,7.00
2019-05-09T14:42:02.420Z,9.70
2019-05-09T14:45:03.144Z,9.30
2019-05-09T14:47:41.874Z,8.97
2019-05-09T14:50:19.729Z,9.90
2019-05-09T14:52:52.730Z,11.80
2019-05-09T14:55:28.546Z,6.93
2019-05-09T14:58:02.757Z,9.53
2019-05-09T15:00:35.355Z,22.50
2019-05-09T15:03:08.193Z,10.97
2019-05-09T15:05:40.352Z,12.30
2019-05-09T15:08:12.579Z,9.60
2019-05-09T15:10:48.505Z,9.97
2019-05-09T15:13:22.450Z,11.53
2019-05-09T15:15:59.670Z,12.63
2019-05-09T15:18:33.482Z,9.23
2019-05-09T15:21:07.858Z,8.77
2019-05-09T15:23:41.057Z,14.30
2019-05-09T15:26:18.072Z,7.47
2019-05-09T15:28:54.726Z,6.77
2019-05-09T15:31:28.611Z,6.23
2019-05-09T15:34:02.828Z,5.33
2019-05-09T15:36:35.031Z,3.93
2019-05-09T15:39:18.413Z,6.27
2019-05-09T15:41:57.784Z,5.30
2019-05-09T15:44:31.788Z,6.27
2019-05-09T15:47:13.535Z,6.93
2019-05-09T15:49:49.168Z,6.43
2019-05-09T15:52:28.571Z,6.00
2019-05-09T15:55:01.954Z,4.80
2019-05-09T15:57:34.631Z,5.37
2019-05-09T16:00:10.249Z,4.57
2019-05-09T16:02:42.790Z,6.23
2019-05-09T16:05:15.631Z,6.90
2019-05-09T16:07:48.882Z,6.87
2019-05-09T16:10:21.876Z,5.93
2019-05-09T16:12:54.029Z,8.50
2019-05-09T16:15:28.559Z,6.27
2019-05-09T16:18:05.178Z,4.80
2019-05-09T16:20:41.141Z,7.43
2019-05-09T16:23:12.807Z,6.27
2019-05-09T16:25:50.262Z,5.17
2019-05-09T16:28:30.516Z,8.50
2019-05-09T16:31:05.560Z,8.37
2019-05-09T16:33:38.787Z,7.43
2019-05-09T16:36:11.779Z,5.90
2019-05-09T16:39:04.402Z,6.93
2019-05-09T16:41:39.538Z,7.07
2019-05-09T16:44:17.988Z,9.90
2019-05-09T16:46:49.508Z,9.87
2019-05-09T16:49:26.064Z,9.90
2019-05-09T16:51:58.299Z,9.23
2019-05-09T16:54:38.765Z,9.57
2019-05-09T16:57:18.203Z,8.17
2019-05-09T16:59:52.510Z,8.83
2019-05-09T17:02:25.240Z,12.17
2019-05-09T17:04:58.540Z,9.23
2019-05-09T17:07:30.475Z,12.23
2019-05-09T17:10:02.538Z,10.80
2019-05-09T17:12:34.718Z,9.13
2019-05-09T17:15:08.570Z,9.33
2019-05-09T17:17:40.838Z,7.97
2019-05-09T17:20:14.957Z,9.20
2019-05-09T17:23:15.860Z,10.40
2019-05-09T17:25:49.466Z,7.07
2019-05-09T17:28:21.491Z,8.37
2019-05-09T17:30:53.611Z,8.13
2019-05-09T17:33:25.413Z,7.50
2019-05-09T17:35:58.094Z,8.30
2019-05-09T17:38:30.349Z,13.77
2019-05-09T17:41:02.907Z,6.83
2019-05-09T17:43:34.775Z,7.93
2019-05-09T17:46:07.619Z,10.20
2019-05-09T17:48:40.524Z,7.53
2019-05-09T17:51:12.448Z,8.77
2019-05-09T17:53:44.639Z,7.60
2019-05-09T17:56:16.895Z,7.63
2019-05-09T17:58:49.788Z,9.87
2019-05-09T18:01:22.413Z,8.13
2019-05-09T18:03:54.762Z,13.47
2019-05-09T18:06:28.182Z,6.83
2019-05-09T18:09:01.308Z,10.00
2019-05-09T18:11:37.559Z,13.60
2019-05-09T18:14:11.722Z,7.97
2019-05-09T18:16:47.635Z,9.17
2019-05-09T18:19:22.336Z,11.30
2019-05-09T18:25:08.240Z,8.73
2019-05-09T18:27:39.720Z,5.80
2019-05-09T18:30:12.074Z,6.87
2019-05-09T18:33:02.157Z,6.60
2019-05-09T18:38:45.237Z,6.97
2019-05-09T18:41:17.771Z,8.87
2019-05-09T18:47:01.147Z,6.90
2019-05-09T18:49:36.375Z,7.83
2019-05-09T18:52:09.566Z,7.13
2019-05-09T18:54:41.419Z,7.73
2019-05-09T18:57:13.587Z,8.20
2019-05-09T18:59:45.678Z,8.10
2019-05-09T19:02:18.551Z,9.40
2019-05-09T19:04:51.568Z,10.23
2019-05-09T19:07:23.996Z,9.10
2019-05-09T19:10:03.764Z,12.50
2019-05-09T19:15:58.058Z,9.23
2019-05-09T19:18:38.774Z,7.27
2019-05-09T19:21:17.780Z,9.33
2019-05-09T19:23:50.097Z,8.43
2019-05-09T19:26:37.731Z,7.70
2019-05-09T19:32:20.456Z,9.03
2019-05-09T19:34:52.566Z,8.53
2019-05-09T19:37:24.320Z,12.17
2019-05-09T19:39:55.918Z,7.93
2019-05-09T19:42:28.106Z,11.00
2019-05-09T19:45:00.283Z,10.83
2019-05-09T19:47:33.263Z,10.53
2019-05-09T19:50:05.733Z,11.93
2019-05-09T19:52:38.856Z,10.30
2019-05-09T19:55:11.889Z,9.73
2019-05-09T19:57:45.018Z,9.83
2019-05-09T20:00:17.795Z,11.47
2019-05-09T20:02:54.031Z,11.23
2019-05-09T20:05:26.911Z,11.20
2019-05-09T20:08:09.967Z,14.80
2019-05-09T20:11:19.747Z,8.97
2019-05-09T20:14:12.534Z,9.03
2019-05-09T20:16:47.765Z,7.73
2019-05-09T20:19:19.595Z,9.20
2019-05-09T20:21:57.626Z,13.13
2019-05-09T20:24:30.315Z,12.00
2019-05-09T20:27:02.950Z,9.00
2019-05-09T20:29:34.787Z,10.70
2019-05-09T20:32:06.870Z,10.07
2019-05-09T20:34:38.727Z,13.73
2019-05-09T20:37:10.533Z,12.03
2019-05-09T20:39:42.577Z,7.40
2019-05-09T20:45:25.592Z,14.97
2019-05-09T20:47:57.642Z,10.00
2019-05-09T20:50:29.538Z,13.50
2019-05-09T20:53:09.514Z,16.87
2019-05-09T20:55:39.110Z,16.20
2019-05-09T20:58:19.084Z,9.63
2019-05-09T21:00:52.690Z,12.97
2019-05-09T21:03:24.379Z,15.43
2019-05-09T21:05:58.066Z,15.80
2019-05-09T21:08:34.858Z,13.10
2019-05-09T21:11:08.631Z,10.33
2019-05-09T21:13:48.498Z,12.77
2019-05-09T21:16:14.969Z,16.27
2019-05-09T21:18:47.320Z,12.20
2019-05-09T21:21:19.409Z,11.87
2019-05-09T21:23:57.102Z,12.60
2019-05-09T21:26:30.577Z,12.10
2019-05-09T21:29:05.488Z,12.37
2019-05-09T21:31:39.771Z,12.17
2019-05-09T21:34:13.345Z,11.37
2019-05-09T21:36:45.451Z,12.77
2019-05-09T21:39:17.600Z,13.97
2019-05-09T21:41:50.180Z,14.93
2019-05-09T21:44:22.424Z,16.57
2019-05-09T21:46:55.150Z,12.33
2019-05-09T21:49:27.139Z,13.37
2019-05-09T21:52:00.042Z,12.50
2019-05-09T21:54:38.809Z,16.37
2019-05-09T21:57:11.262Z,14.93
2019-05-09T21:59:43.793Z,13.77
2019-05-09T22:02:16.305Z,15.07
2019-05-09T22:04:49.677Z,12.00
2019-05-09T22:07:22.171Z,13.70
2019-05-09T22:09:54.012Z,14.63
2019-05-09T22:12:25.998Z,15.97
2019-05-09T22:14:58.139Z,14.47
2019-05-09T22:17:47.000Z,12.83
2019-05-09T22:20:22.457Z,13.97
2019-05-09T22:22:55.399Z,14.47
2019-05-09T22:25:27.525Z,15.67
2019-05-09T22:28:04.557Z,12.63
2019-05-09T22:30:37.793Z,15.43
2019-05-09T22:33:18.245Z,20.40
2019-05-09T22:35:51.910Z,17.87
2019-05-09T22:38:25.107Z,16.50
2019-05-09T22:40:58.259Z,18.37
2019-05-09T22:43:34.428Z,16.90
2019-05-09T22:46:06.330Z,25.40
2019-05-09T22:48:44.536Z,19.63
2019-05-09T22:51:23.734Z,22.67
2019-05-09T22:54:11.657Z,18.87
2019-05-09T22:56:33.398Z,18.70
2019-05-09T22:59:05.673Z,21.50
2019-05-09T23:01:37.725Z,25.23
2019-05-09T23:04:16.334Z,21.70
2019-05-09T23:06:51.652Z,26.47
2019-05-09T23:09:25.453Z,21.87
2019-05-09T23:12:01.947Z,21.33
2019-05-09T23:14:34.458Z,23.50
2019-05-09T23:17:07.284Z,20.03
2019-05-09T23:19:43.570Z,22.47
2019-05-09T23:22:18.177Z,21.97
2019-05-09T23:25:00.338Z,19.77
2019-05-09T23:27:34.039Z,19.63
2019-05-09T23:30:07.173Z,21.10
2019-05-09T23:32:45.547Z,22.07
2019-05-09T23:35:23.521Z,17.80
2019-05-09T23:37:58.455Z,19.73
2019-05-09T23:40:31.418Z,18.27
2019-05-09T23:43:04.075Z,15.40
2019-05-09T23:45:37.321Z,27.87
2019-05-09T23:48:12.420Z,17.60
2019-05-09T23:50:47.559Z,13.60
2019-05-09T23:53:33.605Z,15.97
2019-05-09T23:56:23.277Z,19.57
2019-05-09T23:59:16.083Z,16.33
